Time;durP1;ratioP1;P1;durP2;ratioP2;P2;SDS_P1;SDS_P2;PMS_P1;PMS_P2;Temp;Humidity;BMP_temperature;BMP_pressure;BME280_temperature;BME280_humidity;BME280_pressure;Samples;Min_cycle;Max_cycle;Signal;HPM_P1;HPM_P2
2023/07/27 00:00:20;;;;;;;4.90;2.78;;;17.10;99.90;;;;;;5070233;28;20262;-81
2023/07/27 00:02:47;;;;;;;4.97;2.90;;;17.10;99.90;;;;;;5066670;28;20273;-79
2023/07/27 00:05:14;;;;;;;5.07;2.53;;;17.10;99.90;;;;;;5063530;28;20237;-79
2023/07/27 00:07:41;;;;;;;4.55;2.63;;;17.10;99.90;;;;;;5058685;28;20203;-78
2023/07/27 00:10:08;;;;;;;3.47;2.42;;;17.10;99.90;;;;;;5062244;28;20246;-79
2023/07/27 00:12:35;;;;;;;4.30;2.38;;;17.00;99.90;;;;;;5064374;28;20220;-79
2023/07/27 00:15:02;;;;;;;5.18;2.42;;;17.00;99.90;;;;;;5027685;28;20203;-79
2023/07/27 00:17:29;;;;;;;4.90;3.00;;;17.00;99.90;;;;;;5052060;28;20224;-80
2023/07/27 00:19:57;;;;;;;7.93;3.30;;;17.00;99.90;;;;;;5069611;28;20204;-80
2023/07/27 00:22:24;;;;;;;3.43;2.33;;;17.00;99.90;;;;;;5060713;28;20283;-79
2023/07/27 00:24:51;;;;;;;3.67;2.57;;;16.90;99.90;;;;;;5058290;28;20197;-80
2023/07/27 00:27:18;;;;;;;3.75;2.53;;;16.90;99.90;;;;;;5057152;28;20239;-80
2023/07/27 00:29:45;;;;;;;4.78;2.90;;;16.90;99.90;;;;;;5062568;28;20300;-78
2023/07/27 00:32:12;;;;;;;3.40;2.40;;;16.80;99.90;;;;;;5056180;28;20261;-81
2023/07/27 00:34:39;;;;;;;3.88;2.40;;;16.80;99.90;;;;;;5065702;28;20658;-79
2023/07/27 00:37:06;;;;;;;5.13;2.70;;;16.80;99.90;;;;;;5057017;28;20316;-81
2023/07/27 00:39:33;;;;;;;5.77;3.00;;;16.80;99.90;;;;;;5062523;28;20271;-80
2023/07/27 00:42:00;;;;;;;7.53;3.27;;;16.70;99.90;;;;;;5054145;28;20209;-79
2023/07/27 00:44:27;;;;;;;3.72;2.65;;;16.70;99.90;;;;;;5066022;28;20349;-78
2023/07/27 00:46:54;;;;;;;2.93;2.40;;;16.80;99.90;;;;;;5050174;28;20731;-79
2023/07/27 00:49:21;;;;;;;3.70;2.70;;;16.70;99.90;;;;;;5063192;28;20200;-79
2023/07/27 00:51:48;;;;;;;4.63;2.73;;;16.70;99.90;;;;;;5047791;28;20197;-79
2023/07/27 00:54:16;;;;;;;4.50;3.00;;;16.70;99.90;;;;;;5059513;28;20250;-80
2023/07/27 00:56:43;;;;;;;4.47;2.50;;;16.70;99.90;;;;;;5055213;28;20220;-81
2023/07/27 00:59:10;;;;;;;5.63;3.23;;;16.70;99.90;;;;;;5059867;28;20266;-79
2023/07/27 01:01:37;;;;;;;5.00;2.60;;;16.70;99.90;;;;;;5057828;28;20211;-79
2023/07/27 01:04:04;;;;;;;3.92;2.58;;;16.70;99.90;;;;;;5051846;28;20232;-80
2023/07/27 01:06:31;;;;;;;4.87;2.87;;;16.70;99.90;;;;;;5052446;28;20294;-81
2023/07/27 01:08:59;;;;;;;4.43;2.83;;;16.70;99.90;;;;;;5041268;28;20212;-80
2023/07/27 01:11:39;;;;;;;4.17;2.70;;;16.70;99.90;;;;;;5064992;28;20610;-81
2023/07/27 01:14:38;;;;;;;3.58;2.53;;;16.70;99.90;;;;;;5046910;28;20534;-78
2023/07/27 01:17:27;;;;;;;5.07;2.58;;;16.70;99.90;;;;;;4977834;28;20263;-80
2023/07/27 01:20:19;;;;;;;4.20;2.67;;;16.80;99.90;;;;;;5040322;28;20216;-79
2023/07/27 01:23:14;;;;;;;3.43;2.43;;;16.70;99.90;;;;;;5052001;28;20203;-80
2023/07/27 01:26:00;;;;;;;4.57;3.07;;;16.70;99.90;;;;;;5047327;28;20209;-81
2023/07/27 01:28:59;;;;;;;5.32;3.25;;;16.70;99.90;;;;;;5057686;28;20220;-79
2023/07/27 01:31:30;;;;;;;4.35;2.72;;;16.70;99.90;;;;;;5053501;28;20204;-81
2023/07/27 01:34:04;;;;;;;6.43;3.03;;;16.70;99.90;;;;;;5049386;28;20241;-80
2023/07/27 01:36:38;;;;;;;3.60;2.97;;;16.70;99.90;;;;;;5052622;28;20292;-79
2023/07/27 01:39:07;;;;;;;4.47;2.90;;;16.80;99.90;;;;;;5068018;28;20228;-78
2023/07/27 01:41:36;;;;;;;3.77;3.07;;;16.70;99.90;;;;;;5061675;28;20217;-79
2023/07/27 01:44:04;;;;;;;6.35;3.40;;;16.70;99.90;;;;;;5059152;28;20204;-81
2023/07/27 01:46:32;;;;;;;4.70;3.35;;;16.60;99.90;;;;;;5051251;28;20669;-80
2023/07/27 01:49:01;;;;;;;4.38;3.35;;;16.70;99.90;;;;;;5060937;28;20259;-80
2023/07/27 01:51:29;;;;;;;4.60;3.35;;;16.70;99.90;;;;;;5045743;28;20275;-81
2023/07/27 01:53:57;;;;;;;5.57;3.78;;;16.60;99.90;;;;;;5060753;28;20763;-78
2023/07/27 01:56:25;;;;;;;7.25;3.60;;;16.50;99.90;;;;;;5051967;28;20209;-80
2023/07/27 01:58:53;;;;;;;5.65;3.83;;;16.40;99.90;;;;;;5061491;28;20306;-79
2023/07/27 02:01:20;;;;;;;5.53;3.67;;;16.40;99.90;;;;;;5055187;28;20661;-80
2023/07/27 02:03:48;;;;;;;7.57;4.13;;;16.30;99.90;;;;;;5039472;28;20208;-78
2023/07/27 02:06:14;;;;;;;7.87;4.37;;;16.20;99.90;;;;;;5052420;28;20220;-78
2023/07/27 02:08:41;;;;;;;5.57;3.80;;;16.20;99.90;;;;;;5061395;28;20213;-78
2023/07/27 02:11:11;;;;;;;6.70;4.43;;;16.10;99.90;;;;;;5033667;28;20303;-79
2023/07/27 02:14:01;;;;;;;7.70;4.27;;;16.00;99.90;;;;;;5054705;28;20205;-79
2023/07/27 02:16:54;;;;;;;7.20;4.10;;;16.00;99.90;;;;;;5035261;28;20204;-77
2023/07/27 02:19:32;;;;;;;6.37;3.90;;;16.00;99.90;;;;;;5068410;28;20656;-80
2023/07/27 02:22:02;;;;;;;9.17;4.30;;;15.90;99.90;;;;;;5050731;28;20220;-79
2023/07/27 02:24:30;;;;;;;7.00;4.63;;;15.90;99.90;;;;;;5060960;28;20204;-78
2023/07/27 02:26:57;;;;;;;7.73;4.43;;;16.00;99.90;;;;;;5048770;28;20209;-79
2023/07/27 02:29:24;;;;;;;8.43;4.43;;;15.90;99.90;;;;;;5053379;28;20270;-78
2023/07/27 02:31:51;;;;;;;8.27;4.20;;;15.90;99.90;;;;;;5046596;28;20290;-78
2023/07/27 02:34:19;;;;;;;6.93;4.40;;;16.00;99.90;;;;;;5056769;28;20193;-78
2023/07/27 02:36:46;;;;;;;7.03;4.47;;;15.90;99.90;;;;;;5031287;28;20208;-79
2023/07/27 02:39:13;;;;;;;7.40;4.00;;;15.90;99.90;;;;;;5057162;28;20232;-78
2023/07/27 02:41:40;;;;;;;6.03;3.80;;;15.80;99.90;;;;;;5041652;28;20678;-79
2023/07/27 02:44:07;;;;;;;5.70;3.63;;;15.80;99.90;;;;;;5062678;28;20209;-80
2023/07/27 02:46:33;;;;;;;6.40;3.83;;;15.80;99.90;;;;;;5052459;28;20234;-80
2023/07/27 02:49:01;;;;;;;6.30;3.03;;;16.00;99.90;;;;;;5066041;28;20613;-79
2023/07/27 02:51:28;;;;;;;4.47;2.90;;;15.80;99.90;;;;;;5071312;28;20208;-79
2023/07/27 02:53:54;;;;;;;5.30;3.53;;;15.80;99.90;;;;;;5065938;28;20712;-78
2023/07/27 02:56:21;;;;;;;5.27;3.40;;;15.80;99.90;;;;;;5053147;28;21363;-80
2023/07/27 02:58:48;;;;;;;7.00;3.37;;;15.70;99.90;;;;;;5054045;28;20231;-79
2023/07/27 03:01:15;;;;;;;6.63;3.40;;;15.70;99.90;;;;;;5058927;28;20197;-80
2023/07/27 03:03:42;;;;;;;5.93;3.40;;;15.80;99.90;;;;;;5045924;28;20621;-80
2023/07/27 03:06:09;;;;;;;3.77;3.03;;;15.90;99.90;;;;;;5060345;28;20289;-80
2023/07/27 03:08:37;;;;;;;6.53;3.73;;;15.80;99.90;;;;;;5037382;28;20205;-83
2023/07/27 03:11:04;;;;;;;6.03;3.20;;;15.80;99.90;;;;;;5069615;28;20677;-82
2023/07/27 03:13:32;;;;;;;6.77;3.57;;;15.80;99.90;;;;;;5070455;28;20627;-82
2023/07/27 03:16:03;;;;;;;7.13;3.63;;;15.80;99.90;;;;;;5054342;28;20205;-84
2023/07/27 03:18:30;;;;;;;5.47;3.60;;;15.80;99.90;;;;;;5065545;28;20568;-84
2023/07/27 03:20:57;;;;;;;5.73;3.70;;;15.80;99.90;;;;;;5054006;28;20290;-83
2023/07/27 03:23:25;;;;;;;5.07;3.57;;;15.80;99.90;;;;;;5060878;28;20259;-84
2023/07/27 03:25:51;;;;;;;6.63;3.53;;;15.90;99.90;;;;;;5044775;28;20208;-85
2023/07/27 03:28:18;;;;;;;7.53;3.87;;;15.90;99.90;;;;;;5059198;28;20221;-83
2023/07/27 03:30:45;;;;;;;5.73;3.90;;;15.90;99.90;;;;;;5062606;28;20228;-83
2023/07/27 03:33:12;;;;;;;7.60;5.10;;;15.90;99.90;;;;;;5035642;28;20223;-83
2023/07/27 03:35:39;;;;;;;6.63;4.23;;;15.90;99.90;;;;;;5057472;28;20200;-82
2023/07/27 03:38:08;;;;;;;9.47;4.67;;;15.80;99.90;;;;;;5043205;28;20244;-84
2023/07/27 03:40:34;;;;;;;8.87;5.33;;;15.70;99.90;;;;;;5044149;28;20217;-83
2023/07/27 03:43:01;;;;;;;9.23;5.47;;;15.80;99.90;;;;;;5061945;28;20213;-83
2023/07/27 03:45:32;;;;;;;8.53;4.77;;;15.70;99.90;;;;;;5051187;28;20202;-82
2023/07/27 03:48:00;;;;;;;10.53;5.93;;;15.60;99.90;;;;;;5079709;28;20201;-83
2023/07/27 03:50:27;;;;;;;10.40;6.00;;;15.70;99.90;;;;;;5042441;28;20221;-82
2023/07/27 03:52:56;;;;;;;10.30;5.83;;;15.60;99.90;;;;;;5058639;28;20212;-83
2023/07/27 03:55:23;;;;;;;8.00;5.90;;;15.50;99.90;;;;;;5057333;28;20716;-84
2023/07/27 03:57:50;;;;;;;13.67;7.27;;;15.60;99.90;;;;;;5067654;28;20294;-82
2023/07/27 04:00:17;;;;;;;15.47;7.50;;;15.50;99.90;;;;;;5046276;28;20197;-83
2023/07/27 04:02:47;;;;;;;16.07;7.43;;;15.40;99.90;;;;;;5061708;28;20557;-83
2023/07/27 04:05:14;;;;;;;14.27;8.30;;;15.40;99.90;;;;;;5039899;28;20629;-84
2023/07/27 04:07:41;;;;;;;15.33;8.90;;;15.30;99.90;;;;;;5066243;28;20204;-85
2023/07/27 04:10:08;;;;;;;17.87;8.90;;;15.30;99.90;;;;;;5072948;28;20213;-84
2023/07/27 04:12:35;;;;;;;17.20;9.20;;;15.30;99.90;;;;;;5055920;28;20308;-84
2023/07/27 04:15:02;;;;;;;17.53;9.43;;;15.30;99.90;;;;;;5037444;28;20197;-83
2023/07/27 04:17:29;;;;;;;15.50;8.00;;;15.30;99.90;;;;;;5042824;28;20267;-84
2023/07/27 04:19:57;;;;;;;16.40;9.33;;;15.30;99.90;;;;;;5066957;28;20216;-85
2023/07/27 04:22:26;;;;;;;19.60;10.07;;;15.20;99.90;;;;;;5058238;28;20646;-84
2023/07/27 04:24:53;;;;;;;23.77;11.60;;;15.20;99.90;;;;;;5037609;28;20197;-85
2023/07/27 04:27:20;;;;;;;24.17;11.03;;;15.30;99.90;;;;;;5052782;28;20239;-85
2023/07/27 04:29:50;;;;;;;23.07;11.90;;;15.20;99.90;;;;;;5070239;28;20203;-84
2023/07/27 04:32:19;;;;;;;25.57;12.00;;;15.10;99.90;;;;;;5033204;28;20194;-84
2023/07/27 04:34:46;;;;;;;30.80;13.73;;;15.20;99.90;;;;;;5055204;28;20220;-83
2023/07/27 04:37:12;;;;;;;28.23;13.73;;;15.20;99.90;;;;;;5044604;28;20199;-83
2023/07/27 04:39:39;;;;;;;24.13;13.50;;;15.10;99.90;;;;;;5043007;28;20308;-84
2023/07/27 04:42:07;;;;;;;26.00;14.37;;;15.10;99.90;;;;;;5056161;28;20216;-82
2023/07/27 04:44:34;;;;;;;33.13;15.63;;;15.10;99.90;;;;;;5060406;28;20240;-86
2023/07/27 04:47:01;;;;;;;30.10;15.53;;;15.10;99.90;;;;;;5036294;28;20208;-83
2023/07/27 04:49:28;;;;;;;29.07;14.57;;;15.00;99.90;;;;;;5068645;28;20681;-84
2023/07/27 04:51:55;;;;;;;36.33;16.13;;;15.10;99.90;;;;;;5035025;28;20275;-85
2023/07/27 04:54:22;;;;;;;33.80;15.83;;;15.00;99.90;;;;;;5058440;28;20443;-87
2023/07/27 04:56:50;;;;;;;32.43;17.00;;;15.10;99.90;;;;;;5039549;28;20417;-84
2023/07/27 04:59:17;;;;;;;32.57;16.67;;;15.10;99.90;;;;;;5055268;28;20231;-85
2023/07/27 05:01:44;;;;;;;36.07;17.40;;;15.00;99.90;;;;;;5043283;28;20205;-83
2023/07/27 05:04:11;;;;;;;34.07;16.80;;;15.10;99.90;;;;;;5039530;28;20213;-83
2023/07/27 05:06:39;;;;;;;34.53;17.60;;;15.10;99.90;;;;;;5052343;28;20237;-85
2023/07/27 05:09:07;;;;;;;29.73;15.33;;;15.10;99.90;;;;;;5057756;28;20216;-85
2023/07/27 05:11:36;;;;;;;28.53;15.70;;;15.20;99.90;;;;;;5033008;28;20221;-86
2023/07/27 05:14:03;;;;;;;25.90;14.13;;;15.20;99.90;;;;;;5049910;28;20209;-84
2023/07/27 05:16:30;;;;;;;24.87;13.77;;;15.20;99.90;;;;;;5041785;28;20213;-86
2023/07/27 05:18:58;;;;;;;26.50;14.13;;;15.20;99.90;;;;;;5059073;28;20264;-84
2023/07/27 05:21:26;;;;;;;24.73;13.17;;;15.20;99.90;;;;;;5033650;28;20211;-86
2023/07/27 05:23:56;;;;;;;23.10;12.33;;;15.30;99.90;;;;;;5037803;28;20213;-85
2023/07/27 05:26:23;;;;;;;23.03;13.57;;;15.30;99.90;;;;;;5037045;28;20185;-84
2023/07/27 05:28:49;;;;;;;19.77;11.40;;;15.20;99.90;;;;;;5054386;28;20606;-84
2023/07/27 05:31:16;;;;;;;22.23;11.53;;;15.30;99.90;;;;;;5055328;28;20620;-85
2023/07/27 05:33:43;;;;;;;20.57;11.40;;;15.30;99.90;;;;;;5051426;28;20197;-83
2023/07/27 05:36:10;;;;;;;19.00;10.57;;;15.30;99.90;;;;;;5053878;28;20193;-84
2023/07/27 05:38:40;;;;;;;16.40;10.07;;;15.30;99.90;;;;;;5057204;28;20293;-84
2023/07/27 05:41:07;;;;;;;18.40;9.37;;;15.40;99.90;;;;;;5069751;28;20216;-84
2023/07/27 05:43:33;;;;;;;18.97;10.03;;;15.40;99.90;;;;;;5045212;28;20248;-83
2023/07/27 05:46:00;;;;;;;16.03;9.10;;;15.40;99.90;;;;;;5068891;28;20197;-84
2023/07/27 05:48:27;;;;;;;14.67;8.53;;;15.40;99.90;;;;;;5062095;28;20244;-84
2023/07/27 05:50:54;;;;;;;13.23;8.43;;;15.50;99.90;;;;;;5064126;28;20204;-82
2023/07/27 05:53:21;;;;;;;12.40;8.07;;;15.50;99.90;;;;;;5057444;28;20305;-84
2023/07/27 05:55:48;;;;;;;11.77;7.40;;;15.50;99.90;;;;;;5050819;28;20190;-85
2023/07/27 05:58:15;;;;;;;12.17;7.83;;;15.50;99.90;;;;;;5032234;28;20225;-85
2023/07/27 06:00:59;;;;;;;12.07;7.20;;;15.50;99.90;;;;;;5033470;28;20197;-85
2023/07/27 06:03:27;;;;;;;10.60;6.63;;;15.50;99.90;;;;;;5054410;28;20296;-85
2023/07/27 06:05:54;;;;;;;9.40;6.37;;;15.60;99.90;;;;;;5059459;28;20291;-83
2023/07/27 06:08:21;;;;;;;9.50;6.20;;;15.50;99.90;;;;;;5039702;28;20201;-83
2023/07/27 06:10:48;;;;;;;11.47;6.63;;;15.50;99.90;;;;;;5065720;28;20228;-83
2023/07/27 06:13:15;;;;;;;11.17;6.13;;;15.50;99.90;;;;;;5058497;28;20213;-82
2023/07/27 06:15:47;;;;;;;9.30;5.43;;;15.60;99.90;;;;;;5057841;28;20205;-85
2023/07/27 06:18:14;;;;;;;7.43;5.20;;;15.60;99.90;;;;;;5055563;28;20263;-82
2023/07/27 06:20:45;;;;;;;11.40;6.07;;;15.60;99.90;;;;;;5032248;28;20202;-84
2023/07/27 06:23:12;;;;;;;7.53;5.17;;;15.50;99.90;;;;;;5036996;28;20304;-82
2023/07/27 06:25:44;;;;;;;7.80;5.33;;;15.60;99.90;;;;;;5044671;28;20200;-81
2023/07/27 06:28:14;;;;;;;10.10;5.20;;;15.60;99.90;;;;;;5049288;28;20216;-81
2023/07/27 06:30:41;;;;;;;8.47;5.17;;;15.60;99.90;;;;;;5069424;28;20249;-81
2023/07/27 06:33:09;;;;;;;8.20;4.97;;;15.60;99.90;;;;;;5050792;28;20216;-81
2023/07/27 06:35:37;;;;;;;9.80;4.77;;;15.60;99.90;;;;;;5068313;28;20177;-82
2023/07/27 06:38:03;;;;;;;8.53;6.10;;;15.60;99.90;;;;;;5068725;28;20193;-81
2023/07/27 06:40:36;;;;;;;7.67;4.70;;;15.50;99.90;;;;;;5044479;28;20194;-82
2023/07/27 06:43:03;;;;;;;8.17;5.17;;;15.70;99.90;;;;;;5038558;28;20263;-82
2023/07/27 06:45:29;;;;;;;9.67;5.03;;;15.70;99.90;;;;;;5034379;28;20224;-84
2023/07/27 06:47:56;;;;;;;5.73;4.07;;;15.80;99.90;;;;;;5033545;28;20209;-85
2023/07/27 06:50:24;;;;;;;6.90;4.50;;;15.80;99.90;;;;;;5050000;28;20605;-86
2023/07/27 06:52:50;;;;;;;6.40;4.13;;;15.80;99.90;;;;;;5053925;28;20224;-86
2023/07/27 06:55:17;;;;;;;7.50;4.40;;;15.80;99.90;;;;;;5029143;28;20252;-85
2023/07/27 06:57:44;;;;;;;6.30;4.60;;;15.90;99.90;;;;;;5063586;28;20251;-86
2023/07/27 07:00:12;;;;;;;6.63;4.50;;;15.90;99.90;;;;;;5050329;28;20232;-89
2023/07/27 07:02:39;;;;;;;6.70;4.80;;;15.90;99.90;;;;;;5031451;28;20572;-86
2023/07/27 07:05:06;;;;;;;6.43;4.53;;;16.00;99.90;;;;;;5030787;28;20563;-86
2023/07/27 07:07:33;;;;;;;6.57;4.30;;;16.00;99.90;;;;;;5035721;28;20698;-87
2023/07/27 07:10:00;;;;;;;5.83;3.97;;;16.00;99.90;;;;;;5041615;28;20207;-87
2023/07/27 07:12:27;;;;;;;5.60;4.13;;;16.10;99.90;;;;;;5038186;28;20252;-88
2023/07/27 07:14:54;;;;;;;5.17;3.80;;;16.10;99.90;;;;;;5053781;28;20653;-87
2023/07/27 07:17:21;;;;;;;5.40;3.90;;;16.20;99.90;;;;;;5044539;28;20279;-86
2023/07/27 07:19:48;;;;;;;5.70;4.43;;;16.30;99.90;;;;;;5052915;28;20224;-87
2023/07/27 07:22:15;;;;;;;5.30;3.83;;;16.30;99.90;;;;;;5041068;28;20197;-86
2023/07/27 07:24:42;;;;;;;5.37;3.60;;;16.30;99.90;;;;;;5039506;28;20300;-86
2023/07/27 07:27:09;;;;;;;5.38;3.80;;;16.40;99.90;;;;;;5046727;28;20228;-86
2023/07/27 07:29:36;;;;;;;6.70;3.80;;;16.60;99.90;;;;;;5075332;28;20212;-86
2023/07/27 07:32:03;;;;;;;5.83;3.77;;;16.60;99.90;;;;;;5052692;28;20193;-87
2023/07/27 07:34:33;;;;;;;6.40;3.17;;;16.60;99.90;;;;;;5064196;28;20200;-88
2023/07/27 07:37:02;;;;;;;4.65;3.60;;;16.70;99.90;;;;;;5029315;28;20940;-88
2023/07/27 07:39:30;;;;;;;3.92;3.33;;;16.60;99.90;;;;;;5040532;28;20304;-88
2023/07/27 07:41:58;;;;;;;3.50;3.20;;;16.70;99.90;;;;;;5038862;28;20228;-88
2023/07/27 07:44:26;;;;;;;3.97;3.00;;;16.80;99.90;;;;;;5040471;28;20681;-87
2023/07/27 07:46:53;;;;;;;4.55;3.53;;;16.90;99.90;;;;;;5039454;28;20621;-87
2023/07/27 07:49:24;;;;;;;4.13;3.10;;;16.80;99.90;;;;;;5054228;28;20208;-88
2023/07/27 07:51:53;;;;;;;3.35;2.80;;;17.70;99.90;;;;;;5040983;28;20641;-87
2023/07/27 07:54:20;;;;;;;3.67;2.85;;;16.80;99.90;;;;;;5041604;28;20255;-89
2023/07/27 07:57:07;;;;;;;4.38;2.33;;;16.90;99.90;;;;;;5037791;28;20216;-87
2023/07/27 07:59:34;;;;;;;3.28;2.80;;;16.90;99.90;;;;;;5045614;28;20232;-88
2023/07/27 08:02:02;;;;;;;3.08;2.45;;;16.90;99.90;;;;;;5053876;28;20307;-88
2023/07/27 08:04:30;;;;;;;4.82;3.00;;;16.90;99.90;;;;;;5034248;28;20205;-87
2023/07/27 08:06:57;;;;;;;3.15;2.83;;;17.00;99.90;;;;;;5030210;28;20304;-88
2023/07/27 08:09:26;;;;;;;3.03;2.40;;;17.40;99.90;;;;;;5041712;28;20224;-87
2023/07/27 08:11:54;;;;;;;3.35;2.78;;;17.00;99.90;;;;;;5053228;28;20212;-87
2023/07/27 08:14:24;;;;;;;3.42;2.75;;;17.00;99.90;;;;;;5046816;28;20584;-86
2023/07/27 08:16:50;;;;;;;3.53;2.70;;;17.10;99.90;;;;;;5036177;28;20565;-87
2023/07/27 08:19:17;;;;;;;2.72;2.53;;;17.20;99.90;;;;;;5032946;28;20229;-88
2023/07/27 08:21:44;;;;;;;2.75;2.45;;;16.90;99.90;;;;;;5039609;28;20196;-87
2023/07/27 08:24:11;;;;;;;4.03;3.15;;;17.90;99.90;;;;;;5044088;28;20207;-89
2023/07/27 08:26:38;;;;;;;3.13;2.67;;;17.40;99.90;;;;;;5039251;28;20236;-85
2023/07/27 08:29:07;;;;;;;4.82;3.13;;;17.40;99.90;;;;;;5056568;28;20208;-88
2023/07/27 08:31:34;;;;;;;4.00;3.10;;;17.80;99.90;;;;;;5057188;28;20629;-87
2023/07/27 08:34:03;;;;;;;4.05;3.00;;;17.50;99.90;;;;;;5033659;28;20205;-89
2023/07/27 08:36:30;;;;;;;3.25;2.90;;;17.50;99.90;;;;;;5034753;28;20498;-87
2023/07/27 08:39:03;;;;;;;5.53;3.90;;;17.10;99.90;;;;;;5036011;28;20642;-85
2023/07/27 08:41:30;;;;;;;4.50;3.78;;;17.60;99.90;;;;;;5033760;28;20274;-86
2023/07/27 08:43:58;;;;;;;4.25;3.17;;;17.90;99.90;;;;;;5043833;28;20228;-86
2023/07/27 08:46:28;;;;;;;3.47;3.17;;;17.40;99.90;;;;;;5050336;28;20199;-86
2023/07/27 08:48:56;;;;;;;4.30;3.00;;;18.40;99.90;;;;;;5044854;28;20275;-86
2023/07/27 08:51:23;;;;;;;4.63;2.95;;;18.20;99.90;;;;;;5045426;28;20208;-87
2023/07/27 08:53:50;;;;;;;4.32;3.30;;;18.20;99.90;;;;;;5034982;28;20243;-87
2023/07/27 08:56:20;;;;;;;3.10;2.78;;;17.80;99.90;;;;;;5033875;28;20530;-86
2023/07/27 08:58:47;;;;;;;3.53;3.10;;;18.40;99.90;;;;;;5047168;28;20197;-86
2023/07/27 09:01:15;;;;;;;3.58;3.13;;;;;;;;;;5034026;28;20237;-85
2023/07/27 09:03:43;;;;;;;3.75;3.30;;;18.10;99.90;;;;;;5052738;28;20201;-88
2023/07/27 09:06:13;;;;;;;4.57;2.80;;;18.20;99.90;;;;;;5032022;28;20225;-87
2023/07/27 09:08:41;;;;;;;3.03;2.72;;;18.30;99.90;;;;;;5036676;28;20193;-86
2023/07/27 09:11:12;;;;;;;3.00;2.70;;;18.30;99.90;;;;;;5049488;28;20761;-85
2023/07/27 09:13:39;;;;;;;2.58;2.38;;;18.40;99.90;;;;;;5055307;28;20220;-85
2023/07/27 09:16:08;;;;;;;2.63;2.42;;;18.40;99.90;;;;;;5042792;28;20597;-86
2023/07/27 09:18:39;;;;;;;2.10;1.90;;;18.60;99.90;;;;;;5035861;28;20208;-87
2023/07/27 09:21:08;;;;;;;2.58;2.28;;;18.60;99.90;;;;;;5036287;28;20221;-86
2023/07/27 09:23:37;;;;;;;2.78;2.25;;;18.70;99.90;;;;;;5040255;28;20197;-86
2023/07/27 09:26:05;;;;;;;2.60;2.00;;;18.70;99.90;;;;;;5043462;28;20211;-84
2023/07/27 09:28:33;;;;;;;2.20;1.85;;;18.90;99.90;;;;;;5033710;28;20312;-84
2023/07/27 09:31:01;;;;;;;1.85;1.65;;;18.80;99.90;;;;;;5054621;28;20205;-84
2023/07/27 09:33:28;;;;;;;1.70;1.60;;;18.90;99.90;;;;;;5042045;28;20237;-85
2023/07/27 09:35:56;;;;;;;3.13;1.60;;;19.00;99.90;;;;;;5047804;28;20708;-85
2023/07/27 09:38:25;;;;;;;2.65;1.40;;;19.00;99.90;;;;;;5037838;28;20201;-86
2023/07/27 09:40:52;;;;;;;1.35;1.25;;;19.00;99.90;;;;;;5031147;28;20233;-85
2023/07/27 09:43:23;;;;;;;1.25;1.15;;;19.10;99.90;;;;;;5034912;28;20256;-84
2023/07/27 09:45:58;;;;;;;1.23;1.13;;;19.00;99.90;;;;;;5039573;28;20201;-87
2023/07/27 09:48:28;;;;;;;1.38;0.98;;;19.00;99.90;;;;;;5037701;28;20533;-87
2023/07/27 09:51:03;;;;;;;1.70;1.27;;;18.90;99.90;;;;;;5063166;28;20209;-83
2023/07/27 09:53:31;;;;;;;3.20;1.30;;;18.70;99.90;;;;;;5052425;28;20208;-84
2023/07/27 09:55:59;;;;;;;1.60;1.30;;;18.90;99.90;;;;;;5034710;28;20292;-84
2023/07/27 09:58:29;;;;;;;1.25;1.13;;;18.90;99.90;;;;;;5027173;28;20217;-86
2023/07/27 10:00:56;;;;;;;1.58;1.48;;;18.90;99.90;;;;;;5011408;28;20253;-85
2023/07/27 10:03:23;;;;;;;1.65;1.33;;;19.00;99.90;;;;;;5052758;28;20661;-84
2023/07/27 10:05:50;;;;;;;1.27;1.17;;;19.00;99.90;;;;;;5029319;28;20244;-83
2023/07/27 10:08:17;;;;;;;1.63;1.15;;;19.00;99.90;;;;;;5031932;28;20193;-83
2023/07/27 10:10:46;;;;;;;1.30;1.20;;;19.10;99.90;;;;;;5032890;28;20210;-82
2023/07/27 10:13:35;;;;;;;1.20;1.10;;;19.10;99.90;;;;;;5050056;28;20227;-85
2023/07/27 10:16:02;;;;;;;1.27;1.17;;;19.30;99.90;;;;;;5054391;28;20201;-83
2023/07/27 10:18:29;;;;;;;1.05;0.90;;;19.40;99.90;;;;;;5044551;28;20197;-82
2023/07/27 10:21:16;;;;;;;1.77;1.20;;;19.60;99.90;;;;;;5057707;28;20243;-82
2023/07/27 10:23:59;;;;;;;0.98;0.77;;;19.50;99.90;;;;;;5037541;28;20205;-82
2023/07/27 10:26:56;;;;;;;1.10;1.00;;;19.40;99.90;;;;;;5046138;28;20242;-83
2023/07/27 10:29:27;;;;;;;0.77;0.77;;;19.20;99.90;;;;;;5010040;28;20585;-85
2023/07/27 10:32:03;;;;;;;1.02;0.93;;;19.20;99.90;;;;;;5028950;28;20639;-84
2023/07/27 10:34:35;;;;;;;1.08;0.80;;;19.10;99.90;;;;;;5037238;28;20200;-89
2023/07/27 10:37:12;;;;;;;0.80;0.70;;;19.10;99.90;;;;;;5032009;28;20197;-87
2023/07/27 10:39:47;;;;;;;1.00;0.90;;;19.10;99.90;;;;;;5022112;28;20263;-89
2023/07/27 10:42:22;;;;;;;0.75;0.75;;;19.20;99.90;;;;;;5029039;28;20210;-86
2023/07/27 10:44:51;;;;;;;0.95;0.88;;;19.10;99.90;;;;;;5029346;28;20714;-87
2023/07/27 10:47:33;;;;;;;0.85;0.80;;;19.30;99.90;;;;;;5031731;28;20209;-86
2023/07/27 10:50:30;;;;;;;0.80;0.80;;;19.30;99.90;;;;;;5026305;28;20221;-87
2023/07/27 10:52:57;;;;;;;0.95;0.75;;;19.30;99.90;;;;;;5033782;28;20224;-85
2023/07/27 10:55:37;;;;;;;0.90;0.88;;;19.30;99.90;;;;;;5038796;28;20256;-85
2023/07/27 10:58:05;;;;;;;1.08;0.93;;;19.40;99.90;;;;;;5031206;28;20230;-82
2023/07/27 11:00:37;;;;;;;1.15;1.02;;;19.40;99.90;;;;;;5033405;28;20624;-83
2023/07/27 11:03:04;;;;;;;1.25;1.15;;;19.50;99.90;;;;;;5034253;28;20197;-84
2023/07/27 11:05:41;;;;;;;0.90;0.90;;;19.50;99.90;;;;;;5033968;28;20218;-83
2023/07/27 11:08:08;;;;;;;1.05;0.90;;;19.60;99.90;;;;;;5033891;28;20292;-84
2023/07/27 11:10:38;;;;;;;1.35;1.25;;;19.70;99.90;;;;;;5057256;28;20648;-83
2023/07/27 11:13:05;;;;;;;2.22;1.50;;;19.70;99.90;;;;;;5036012;28;20213;-83
2023/07/27 11:15:34;;;;;;;2.50;1.80;;;19.70;99.90;;;;;;5060227;28;20582;-83
2023/07/27 11:18:02;;;;;;;1.90;1.50;;;19.70;99.90;;;;;;5033832;28;20197;-83
2023/07/27 11:20:29;;;;;;;2.85;1.90;;;19.80;99.90;;;;;;5052506;28;20741;-82
2023/07/27 11:23:02;;;;;;;2.83;1.90;;;19.70;99.90;;;;;;5031955;28;20209;-83
2023/07/27 11:25:32;;;;;;;2.00;1.75;;;19.70;99.90;;;;;;5047632;28;20718;-85
2023/07/27 11:28:00;;;;;;;2.30;1.95;;;19.70;99.90;;;;;;5032204;28;20216;-83
2023/07/27 11:30:31;;;;;;;2.17;1.90;;;19.70;99.90;;;;;;5054598;28;20209;-83
2023/07/27 11:33:04;;;;;;;2.85;2.20;;;19.90;99.90;;;;;;5036318;28;20201;-87
2023/07/27 11:35:32;;;;;;;2.47;2.00;;;20.00;99.90;;;;;;5021107;28;20197;-86
2023/07/27 11:38:00;;;;;;;2.42;1.73;;;20.10;99.90;;;;;;5037210;28;20251;-82
2023/07/27 11:40:30;;;;;;;3.25;2.28;;;20.20;99.90;;;;;;5052688;28;20287;-82
2023/07/27 11:43:02;;;;;;;3.03;1.98;;;20.40;99.90;;;;;;5037616;28;20213;-82
2023/07/27 11:45:34;;;;;;;2.67;1.98;;;20.70;99.90;;;;;;5052671;28;20197;-82
2023/07/27 11:48:04;;;;;;;1.80;1.52;;;20.90;99.90;;;;;;5051751;28;20870;-82
2023/07/27 11:50:33;;;;;;;2.78;1.90;;;21.00;99.90;;;;;;5065106;28;20216;-82
2023/07/27 11:53:02;;;;;;;2.47;1.92;;;21.10;99.90;;;;;;5050058;28;20198;-81
2023/07/27 11:55:34;;;;;;;2.80;1.88;;;20.90;99.90;;;;;;5063027;28;20211;-83
2023/07/27 11:58:08;;;;;;;2.13;1.83;;;21.00;99.90;;;;;;5076436;28;20270;-82
2023/07/27 12:00:38;;;;;;;2.10;1.65;;;20.90;99.90;;;;;;5055633;28;20224;-82
2023/07/27 12:03:05;;;;;;;2.85;2.03;;;20.70;99.90;;;;;;5057950;28;20232;-82
2023/07/27 12:05:52;;;;;;;2.38;1.80;;;20.80;99.90;;;;;;5032188;28;20267;-83
2023/07/27 12:08:20;;;;;;;2.92;2.03;;;20.80;99.90;;;;;;5045913;28;20190;-83
2023/07/27 12:10:51;;;;;;;2.20;1.92;;;20.90;99.90;;;;;;5038879;28;20215;-82
2023/07/27 12:13:22;;;;;;;3.97;2.22;;;20.80;99.90;;;;;;5038552;28;20292;-83
2023/07/27 12:16:10;;;;;;;3.03;2.25;;;20.80;99.90;;;;;;5050442;28;20201;-82
2023/07/27 12:18:40;;;;;;;2.80;2.22;;;20.80;99.90;;;;;;5033968;28;20206;-82
2023/07/27 12:21:09;;;;;;;3.95;2.17;;;20.80;99.90;;;;;;5053606;28;20275;-83
2023/07/27 12:23:39;;;;;;;2.80;2.45;;;20.70;99.90;;;;;;5032212;28;20205;-82
2023/07/27 12:26:09;;;;;;;2.60;2.00;;;20.60;99.90;;;;;;5016984;28;20205;-84
2023/07/27 12:28:39;;;;;;;2.63;2.40;;;20.70;99.90;;;;;;5050558;28;20201;-83
2023/07/27 12:31:09;;;;;;;2.67;2.28;;;20.60;99.90;;;;;;5035636;28;20279;-83
2023/07/27 12:33:39;;;;;;;3.15;2.00;;;20.70;99.90;;;;;;5050184;28;20204;-82
2023/07/27 12:36:06;;;;;;;3.25;2.03;;;20.90;99.90;;;;;;5035030;28;20757;-84
2023/07/27 12:38:33;;;;;;;1.75;1.65;;;20.90;99.90;;;;;;5039542;28;20204;-84
2023/07/27 12:41:03;;;;;;;3.15;2.10;;;20.90;99.90;;;;;;5046297;28;20684;-82
2023/07/27 12:43:30;;;;;;;2.22;1.85;;;20.80;99.90;;;;;;5051098;28;20724;-83
2023/07/27 12:45:58;;;;;;;1.70;1.52;;;20.60;99.90;;;;;;5038318;28;20549;-83
2023/07/27 12:48:25;;;;;;;1.63;1.38;;;20.70;99.90;;;;;;5035192;28;20285;-84
2023/07/27 12:50:54;;;;;;;1.63;1.20;;;20.70;99.90;;;;;;5040124;28;20661;-85
2023/07/27 12:53:21;;;;;;;1.20;1.10;;;20.60;99.90;;;;;;5061955;28;20295;-84